sensor_id;sensor_type;location;lat;lon;timestamp;pressure;altitude;pressure_sealevel;temperature;humidity
36964;BME280;22878;48.616;35.326;2023-02-11T00:00:33;102499.14;;;-9.63;100.00
36964;BME280;22878;48.616;35.326;2023-02-11T00:02:58;102492.71;;;-9.66;100.00
36964;BME280;22878;48.616;35.326;2023-02-11T00:05:24;102488.65;;;-9.68;100.00
36964;BME280;22878;48.616;35.326;2023-02-11T00:07:49;102488.52;;;-9.69;100.00
36964;BME280;22878;48.616;35.326;2023-02-11T00:10:15;102482.59;;;-9.72;100.00
36964;BME280;22878;48.616;35.326;2023-02-11T00:12:40;102479.12;;;-9.75;100.00
36964;BME280;22878;48.616;35.326;2023-02-11T00:15:08;102473.40;;;-9.79;100.00
36964;BME280;22878;48.616;35.326;2023-02-11T00:17:34;102466.23;;;-9.82;100.00
36964;BME280;22878;48.616;35.326;2023-02-11T00:20:00;102454.98;;;-9.86;100.00
36964;BME280;22878;48.616;35.326;2023-02-11T00:25:47;102452.79;;;-9.87;100.00
36964;BME280;22878;48.616;35.326;2023-02-11T00:28:13;102445.63;;;-9.86;100.00
36964;BME280;22878;48.616;35.326;2023-02-11T00:30:38;102450.67;;;-9.87;100.00
36964;BME280;22878;48.616;35.326;2023-02-11T00:33:04;102453.05;;;-9.86;100.00
36964;BME280;22878;48.616;35.326;2023-02-11T00:35:30;102447.98;;;-9.85;100.00
36964;BME280;22878;48.616;35.326;2023-02-11T00:37:55;102443.15;;;-9.86;100.00
36964;BME280;22878;48.616;35.326;2023-02-11T00:40:21;102438.11;;;-9.86;100.00
36964;BME280;22878;48.616;35.326;2023-02-11T00:42:47;102438.05;;;-9.88;100.00
36964;BME280;22878;48.616;35.326;2023-02-11T00:45:12;102444.61;;;-9.90;100.00
36964;BME280;22878;48.616;35.326;2023-02-11T00:47:38;102454.85;;;-9.90;100.00
36964;BME280;22878;48.616;35.326;2023-02-11T00:50:04;102453.00;;;-9.91;100.00
36964;BME280;22878;48.616;35.326;2023-02-11T00:56:14;102448.74;;;-9.90;100.00
36964;BME280;22878;48.616;35.326;2023-02-11T00:58:40;102444.05;;;-9.89;100.00
36964;BME280;22878;48.616;35.326;2023-02-11T01:01:06;102436.05;;;-9.86;100.00
36964;BME280;22878;48.616;35.326;2023-02-11T01:03:32;102428.82;;;-9.88;100.00
36964;BME280;22878;48.616;35.326;2023-02-11T01:05:58;102427.84;;;-9.85;100.00
36964;BME280;22878;48.616;35.326;2023-02-11T01:08:24;102430.06;;;-9.85;100.00
36964;BME280;22878;48.616;35.326;2023-02-11T01:11:00;102429.20;;;-9.85;100.00
36964;BME280;22878;48.616;35.326;2023-02-11T01:13:27;102424.36;;;-9.82;100.00
36964;BME280;22878;48.616;35.326;2023-02-11T01:15:54;102426.27;;;-9.82;100.00
36964;BME280;22878;48.616;35.326;2023-02-11T01:18:20;102420.27;;;-9.84;100.00
36964;BME280;22878;48.616;35.326;2023-02-11T01:20:45;102416.42;;;-9.83;100.00
36964;BME280;22878;48.616;35.326;2023-02-11T01:23:11;102412.44;;;-9.84;100.00
36964;BME280;22878;48.616;35.326;2023-02-11T01:25:36;102411.89;;;-9.83;100.00
36964;BME280;22878;48.616;35.326;2023-02-11T01:28:02;102412.23;;;-9.83;100.00
36964;BME280;22878;48.616;35.326;2023-02-11T01:30:28;102408.20;;;-9.82;100.00
36964;BME280;22878;48.616;35.326;2023-02-11T01:32:53;102415.67;;;-9.82;100.00
36964;BME280;22878;48.616;35.326;2023-02-11T01:35:18;102415.46;;;-9.85;100.00
36964;BME280;22878;48.616;35.326;2023-02-11T01:37:44;102422.65;;;-9.86;100.00
36964;BME280;22878;48.616;35.326;2023-02-11T01:40:14;102422.05;;;-9.88;100.00
36964;BME280;22878;48.616;35.326;2023-02-11T01:42:40;102424.80;;;-9.90;100.00
36964;BME280;22878;48.616;35.326;2023-02-11T01:48:41;102430.76;;;-9.91;100.00
36964;BME280;22878;48.616;35.326;2023-02-11T01:51:22;102429.58;;;-9.95;100.00
36964;BME280;22878;48.616;35.326;2023-02-11T01:53:49;102429.29;;;-9.96;100.00
36964;BME280;22878;48.616;35.326;2023-02-11T01:56:37;102429.39;;;-9.98;100.00
36964;BME280;22878;48.616;35.326;2023-02-11T01:59:37;102434.25;;;-10.02;100.00
36964;BME280;22878;48.616;35.326;2023-02-11T02:02:07;102435.10;;;-10.04;100.00
36964;BME280;22878;48.616;35.326;2023-02-11T02:04:40;102436.77;;;-10.06;100.00
36964;BME280;22878;48.616;35.326;2023-02-11T02:07:16;102434.91;;;-10.08;100.00
36964;BME280;22878;48.616;35.326;2023-02-11T02:09:48;102437.71;;;-10.11;100.00
36964;BME280;22878;48.616;35.326;2023-02-11T02:12:16;102435.73;;;-10.13;100.00
36964;BME280;22878;48.616;35.326;2023-02-11T02:14:42;102435.98;;;-10.15;100.00
36964;BME280;22878;48.616;35.326;2023-02-11T02:17:31;102438.45;;;-10.15;100.00
36964;BME280;22878;48.616;35.326;2023-02-11T02:34:23;102437.45;;;-10.06;100.00
36964;BME280;22878;48.616;35.326;2023-02-11T02:36:59;102440.17;;;-10.05;100.00
36964;BME280;22878;48.616;35.326;2023-02-11T02:39:30;102440.10;;;-10.03;100.00
36964;BME280;22878;48.616;35.326;2023-02-11T02:41:58;102440.46;;;-10.03;100.00
36964;BME280;22878;48.616;35.326;2023-02-11T02:44:24;102434.04;;;-10.04;100.00
36964;BME280;22878;48.616;35.326;2023-02-11T02:46:50;102430.55;;;-10.04;100.00
36964;BME280;22878;48.616;35.326;2023-02-11T02:49:16;102433.44;;;-10.03;100.00
36964;BME280;22878;48.616;35.326;2023-02-11T03:00:27;102421.59;;;-10.18;100.00
36964;BME280;22878;48.616;35.326;2023-02-11T03:08:49;102431.37;;;-10.29;100.00
36964;BME280;22878;48.616;35.326;2023-02-11T03:11:18;102432.83;;;-10.33;100.00
36964;BME280;22878;48.616;35.326;2023-02-11T03:13:45;102432.46;;;-10.37;100.00
36964;BME280;22878;48.616;35.326;2023-02-11T03:16:17;102423.80;;;-10.41;100.00
36964;BME280;22878;48.616;35.326;2023-02-11T03:18:48;102429.38;;;-10.44;100.00
36964;BME280;22878;48.616;35.326;2023-02-11T03:21:16;102428.09;;;-10.49;100.00
36964;BME280;22878;48.616;35.326;2023-02-11T03:23:53;102427.87;;;-10.56;100.00
36964;BME280;22878;48.616;35.326;2023-02-11T03:29:07;102427.39;;;-10.64;100.00
36964;BME280;22878;48.616;35.326;2023-02-11T03:32:07;102420.84;;;-10.68;100.00
36964;BME280;22878;48.616;35.326;2023-02-11T03:34:52;102419.78;;;-10.71;100.00
36964;BME280;22878;48.616;35.326;2023-02-11T03:40:19;102415.65;;;-10.79;100.00
36964;BME280;22878;48.616;35.326;2023-02-11T03:43:02;102409.58;;;-10.82;100.00
36964;BME280;22878;48.616;35.326;2023-02-11T03:45:31;102409.52;;;-10.85;100.00
36964;BME280;22878;48.616;35.326;2023-02-11T03:48:13;102411.77;;;-10.88;100.00
36964;BME280;22878;48.616;35.326;2023-02-11T03:50:40;102406.79;;;-10.92;100.00
36964;BME280;22878;48.616;35.326;2023-02-11T03:53:07;102401.84;;;-10.94;100.00
36964;BME280;22878;48.616;35.326;2023-02-11T03:55:36;102404.85;;;-10.95;100.00
36964;BME280;22878;48.616;35.326;2023-02-11T03:58:02;102406.02;;;-10.98;100.00
36964;BME280;22878;48.616;35.326;2023-02-11T04:04:13;102393.98;;;-10.97;100.00
36964;BME280;22878;48.616;35.326;2023-02-11T04:06:38;102389.83;;;-11.01;100.00
36964;BME280;22878;48.616;35.326;2023-02-11T04:09:04;102385.42;;;-11.03;100.00
36964;BME280;22878;48.616;35.326;2023-02-11T04:11:30;102382.42;;;-11.05;100.00
36964;BME280;22878;48.616;35.326;2023-02-11T04:13:55;102386.30;;;-11.07;100.00
36964;BME280;22878;48.616;35.326;2023-02-11T04:16:21;102390.00;;;-11.07;100.00
36964;BME280;22878;48.616;35.326;2023-02-11T04:18:46;102393.02;;;-11.09;100.00
36964;BME280;22878;48.616;35.326;2023-02-11T04:21:12;102395.92;;;-11.12;100.00
36964;BME280;22878;48.616;35.326;2023-02-11T04:23:37;102397.92;;;-11.14;100.00
36964;BME280;22878;48.616;35.326;2023-02-11T04:26:03;102397.25;;;-11.17;100.00
36964;BME280;22878;48.616;35.326;2023-02-11T04:31:51;102399.01;;;-11.18;100.00
36964;BME280;22878;48.616;35.326;2023-02-11T04:37:49;102393.28;;;-11.18;100.00
36964;BME280;22878;48.616;35.326;2023-02-11T04:40:14;102392.15;;;-11.20;100.00
36964;BME280;22878;48.616;35.326;2023-02-11T04:42:40;102391.67;;;-11.21;100.00
36964;BME280;22878;48.616;35.326;2023-02-11T04:45:06;102392.42;;;-11.22;100.00
36964;BME280;22878;48.616;35.326;2023-02-11T04:47:32;102391.94;;;-11.22;100.00
36964;BME280;22878;48.616;35.326;2023-02-11T04:49:58;102390.90;;;-11.23;100.00
36964;BME280;22878;48.616;35.326;2023-02-11T04:52:23;102390.48;;;-11.22;100.00
36964;BME280;22878;48.616;35.326;2023-02-11T04:54:49;102387.86;;;-11.21;100.00
36964;BME280;22878;48.616;35.326;2023-02-11T04:57:15;102387.23;;;-11.18;100.00
36964;BME280;22878;48.616;35.326;2023-02-11T04:59:40;102390.77;;;-11.16;100.00
36964;BME280;22878;48.616;35.326;2023-02-11T05:02:06;102390.61;;;-11.13;100.00
36964;BME280;22878;48.616;35.326;2023-02-11T05:04:31;102381.61;;;-11.10;100.00
36964;BME280;22878;48.616;35.326;2023-02-11T05:06:57;102382.98;;;-11.06;100.00
36964;BME280;22878;48.616;35.326;2023-02-11T05:09:22;102381.99;;;-11.04;100.00
36964;BME280;22878;48.616;35.326;2023-02-11T05:11:48;102380.77;;;-11.00;100.00
36964;BME280;22878;48.616;35.326;2023-02-11T05:14:13;102381.48;;;-10.93;100.00
36964;BME280;22878;48.616;35.326;2023-02-11T05:16:39;102383.48;;;-10.84;100.00
36964;BME280;22878;48.616;35.326;2023-02-11T05:19:04;102386.20;;;-10.76;100.00
36964;BME280;22878;48.616;35.326;2023-02-11T05:21:30;102389.57;;;-10.68;100.00
36964;BME280;22878;48.616;35.326;2023-02-11T05:23:55;102393.82;;;-10.59;100.00
36964;BME280;22878;48.616;35.326;2023-02-11T05:26:21;102397.46;;;-10.49;100.00
36964;BME280;22878;48.616;35.326;2023-02-11T05:28:46;102396.60;;;-10.39;100.00
36964;BME280;22878;48.616;35.326;2023-02-11T05:31:12;102395.35;;;-10.28;100.00
36964;BME280;22878;48.616;35.326;2023-02-11T05:33:39;102392.63;;;-10.16;100.00
36964;BME280;22878;48.616;35.326;2023-02-11T05:36:08;102392.15;;;-9.97;100.00
36964;BME280;22878;48.616;35.326;2023-02-11T05:38:35;102390.19;;;-9.64;100.00
36964;BME280;22878;48.616;35.326;2023-02-11T05:41:01;102394.64;;;-9.23;100.00
36964;BME280;22878;48.616;35.326;2023-02-11T05:43:27;102394.73;;;-8.66;100.00
36964;BME280;22878;48.616;35.326;2023-02-11T05:45:52;102393.78;;;-8.16;100.00
36964;BME280;22878;48.616;35.326;2023-02-11T05:51:39;102392.25;;;-6.61;100.00
36964;BME280;22878;48.616;35.326;2023-02-11T05:54:05;102391.17;;;-6.38;100.00
36964;BME280;22878;48.616;35.326;2023-02-11T05:56:30;102387.66;;;-6.25;100.00
36964;BME280;22878;48.616;35.326;2023-02-11T05:58:58;102384.44;;;-6.16;100.00
36964;BME280;22878;48.616;35.326;2023-02-11T06:01:24;102385.27;;;-6.10;100.00
36964;BME280;22878;48.616;35.326;2023-02-11T06:03:50;102382.26;;;-6.00;100.00
36964;BME280;22878;48.616;35.326;2023-02-11T06:06:16;102379.37;;;-5.86;100.00
36964;BME280;22878;48.616;35.326;2023-02-11T06:08:42;102378.11;;;-5.69;100.00
36964;BME280;22878;48.616;35.326;2023-02-11T06:11:08;102376.99;;;-5.43;100.00
36964;BME280;22878;48.616;35.326;2023-02-11T06:13:34;102376.83;;;-5.12;100.00
36964;BME280;22878;48.616;35.326;2023-02-11T06:16:01;102379.07;;;-4.65;100.00
36964;BME280;22878;48.616;35.326;2023-02-11T06:18:28;102380.30;;;-4.14;100.00
36964;BME280;22878;48.616;35.326;2023-02-11T06:20:54;102377.35;;;-3.81;100.00
36964;BME280;22878;48.616;35.326;2023-02-11T06:23:20;102376.13;;;-3.61;100.00
36964;BME280;22878;48.616;35.326;2023-02-11T06:25:46;102373.86;;;-3.53;100.00
36964;BME280;22878;48.616;35.326;2023-02-11T06:28:11;102374.23;;;-3.33;100.00
36964;BME280;22878;48.616;35.326;2023-02-11T06:30:37;102371.40;;;-3.01;100.00
36964;BME280;22878;48.616;35.326;2023-02-11T06:33:03;102369.58;;;-2.05;100.00
36964;BME280;22878;48.616;35.326;2023-02-11T06:35:29;102364.34;;;-0.45;100.00
36964;BME280;22878;48.616;35.326;2023-02-11T06:37:54;102363.48;;;1.03;100.00
36964;BME280;22878;48.616;35.326;2023-02-11T06:40:20;102360.40;;;2.29;100.00
36964;BME280;22878;48.616;35.326;2023-02-11T06:42:46;102353.90;;;3.56;100.00
36964;BME280;22878;48.616;35.326;2023-02-11T06:45:11;102355.32;;;4.65;92.64
36964;BME280;22878;48.616;35.326;2023-02-11T06:47:38;102353.64;;;5.64;81.97
36964;BME280;22878;48.616;35.326;2023-02-11T06:50:06;102350.25;;;6.48;73.33
36964;BME280;22878;48.616;35.326;2023-02-11T06:52:32;102344.12;;;7.22;65.40
36964;BME280;22878;48.616;35.326;2023-02-11T06:54:58;102345.05;;;8.03;60.33
36964;BME280;22878;48.616;35.326;2023-02-11T06:57:24;102341.31;;;8.99;59.78
36964;BME280;22878;48.616;35.326;2023-02-11T06:59:50;102343.05;;;9.95;58.57
36964;BME280;22878;48.616;35.326;2023-02-11T07:02:16;102341.05;;;11.30;65.51
36964;BME280;22878;48.616;35.326;2023-02-11T07:08:13;102346.08;;;14.25;54.80
36964;BME280;22878;48.616;35.326;2023-02-11T07:10:39;102330.34;;;15.13;48.48
36964;BME280;22878;48.616;35.326;2023-02-11T07:13:05;102333.55;;;15.61;45.12
36964;BME280;22878;48.616;35.326;2023-02-11T07:15:30;102332.51;;;15.83;42.64
36964;BME280;22878;48.616;35.326;2023-02-11T07:17:56;102324.30;;;15.71;37.99
36964;BME280;22878;48.616;35.326;2023-02-11T07:20:21;102323.19;;;15.80;38.73
36964;BME280;22878;48.616;35.326;2023-02-11T07:22:47;102320.05;;;16.10;37.06
36964;BME280;22878;48.616;35.326;2023-02-11T07:25:12;102322.98;;;15.95;34.73
36964;BME280;22878;48.616;35.326;2023-02-11T07:27:38;102321.13;;;16.12;37.11
36964;BME280;22878;48.616;35.326;2023-02-11T07:30:04;102324.80;;;16.58;35.27
36964;BME280;22878;48.616;35.326;2023-02-11T07:32:29;102318.27;;;16.56;35.15
36964;BME280;22878;48.616;35.326;2023-02-11T07:34:55;102316.62;;;17.02;37.40
36964;BME280;22878;48.616;35.326;2023-02-11T07:37:20;102319.27;;;17.64;35.87
36964;BME280;22878;48.616;35.326;2023-02-11T07:39:46;102318.21;;;18.30;36.41
36964;BME280;22878;48.616;35.326;2023-02-11T07:42:11;102317.29;;;18.66;34.40
36964;BME280;22878;48.616;35.326;2023-02-11T07:44:37;102308.73;;;18.71;33.22
36964;BME280;22878;48.616;35.326;2023-02-11T07:47:02;102306.59;;;19.20;33.94
36964;BME280;22878;48.616;35.326;2023-02-11T07:49:28;102298.63;;;19.91;34.45
36964;BME280;22878;48.616;35.326;2023-02-11T07:51:54;102296.88;;;20.29;33.14
36964;BME280;22878;48.616;35.326;2023-02-11T07:54:20;102290.66;;;20.50;32.67
36964;BME280;22878;48.616;35.326;2023-02-11T07:56:45;102287.73;;;20.01;30.24
36964;BME280;22878;48.616;35.326;2023-02-11T07:59:11;102284.98;;;19.91;31.47
36964;BME280;22878;48.616;35.326;2023-02-11T08:01:36;102286.83;;;20.34;31.61
36964;BME280;22878;48.616;35.326;2023-02-11T08:04:02;102294.45;;;20.60;31.57
36964;BME280;22878;48.616;35.326;2023-02-11T08:06:32;102294.19;;;20.73;30.56
36964;BME280;22878;48.616;35.326;2023-02-11T08:09:12;102292.73;;;20.80;30.54
36964;BME280;22878;48.616;35.326;2023-02-11T08:11:38;102291.18;;;20.29;29.62
36964;BME280;22878;48.616;35.326;2023-02-11T08:14:03;102292.92;;;20.29;30.51
36964;BME280;22878;48.616;35.326;2023-02-11T08:16:32;102292.42;;;20.40;29.96
36964;BME280;22878;48.616;35.326;2023-02-11T08:19:00;102290.63;;;20.46;27.78
36964;BME280;22878;48.616;35.326;2023-02-11T08:21:27;102292.51;;;19.24;28.08
36964;BME280;22878;48.616;35.326;2023-02-11T08:23:53;102295.69;;;18.20;29.51
36964;BME280;22878;48.616;35.326;2023-02-11T08:26:23;102291.41;;;17.90;30.22
36964;BME280;22878;48.616;35.326;2023-02-11T08:28:51;102289.29;;;18.36;30.31
36964;BME280;22878;48.616;35.326;2023-02-11T08:31:20;102287.07;;;18.21;29.91
36964;BME280;22878;48.616;35.326;2023-02-11T08:33:46;102282.08;;;17.57;29.69
36964;BME280;22878;48.616;35.326;2023-02-11T08:36:15;102281.11;;;16.18;30.21
36964;BME280;22878;48.616;35.326;2023-02-11T08:38:41;102286.80;;;14.60;31.06
36964;BME280;22878;48.616;35.326;2023-02-11T08:41:07;102292.35;;;13.67;32.52
36964;BME280;22878;48.616;35.326;2023-02-11T08:43:34;102286.50;;;12.87;33.34
36964;BME280;22878;48.616;35.326;2023-02-11T08:46:01;102290.66;;;12.03;34.19
36964;BME280;22878;48.616;35.326;2023-02-11T08:48:26;102284.41;;;11.47;34.73
36964;BME280;22878;48.616;35.326;2023-02-11T08:54:15;102279.05;;;11.30;35.56
36964;BME280;22878;48.616;35.326;2023-02-11T08:56:41;102275.64;;;10.71;35.57
36964;BME280;22878;48.616;35.326;2023-02-11T08:59:07;102268.48;;;10.06;36.16
36964;BME280;22878;48.616;35.326;2023-02-11T09:01:35;102267.71;;;9.53;36.91
36964;BME280;22878;48.616;35.326;2023-02-11T09:04:00;102264.28;;;9.13;37.75
36964;BME280;22878;48.616;35.326;2023-02-11T09:06:26;102258.18;;;8.88;38.57
36964;BME280;22878;48.616;35.326;2023-02-11T09:08:55;102253.50;;;8.77;39.51
36964;BME280;22878;48.616;35.326;2023-02-11T09:11:30;102243.01;;;8.61;40.24
36964;BME280;22878;48.616;35.326;2023-02-11T09:13:56;102241.79;;;8.31;39.43
36964;BME280;22878;48.616;35.326;2023-02-11T09:16:28;102238.35;;;7.97;40.77
36964;BME280;22878;48.616;35.326;2023-02-11T09:18:55;102233.05;;;7.75;41.39
36964;BME280;22878;48.616;35.326;2023-02-11T09:21:21;102234.06;;;7.59;41.95
36964;BME280;22878;48.616;35.326;2023-02-11T09:23:47;102230.98;;;7.72;42.39
36964;BME280;22878;48.616;35.326;2023-02-11T09:26:15;102231.23;;;7.81;41.85
36964;BME280;22878;48.616;35.326;2023-02-11T09:28:42;102223.88;;;7.71;42.64
36964;BME280;22878;48.616;35.326;2023-02-11T09:31:11;102221.19;;;7.58;43.13
36964;BME280;22878;48.616;35.326;2023-02-11T09:33:39;102216.83;;;7.63;42.83
36964;BME280;22878;48.616;35.326;2023-02-11T09:36:06;102210.90;;;7.78;42.23
36964;BME280;22878;48.616;35.326;2023-02-11T09:38:32;102208.89;;;7.72;42.76
36964;BME280;22878;48.616;35.326;2023-02-11T09:44:46;102204.48;;;7.40;43.20
36964;BME280;22878;48.616;35.326;2023-02-11T09:47:23;102207.47;;;7.16;43.73
36964;BME280;22878;48.616;35.326;2023-02-11T09:49:53;102204.46;;;6.89;42.98
36964;BME280;22878;48.616;35.326;2023-02-11T09:52:39;102198.71;;;6.61;44.47
36964;BME280;22878;48.616;35.326;2023-02-11T09:55:28;102191.52;;;6.50;44.12
36964;BME280;22878;48.616;35.326;2023-02-11T09:57:56;102182.39;;;6.36;44.74
36964;BME280;22878;48.616;35.326;2023-02-11T10:00:31;102177.02;;;6.38;44.50
36964;BME280;22878;48.616;35.326;2023-02-11T10:05:54;102171.80;;;6.12;45.70
36964;BME280;22878;48.616;35.326;2023-02-11T10:08:44;102169.30;;;6.05;45.81
36964;BME280;22878;48.616;35.326;2023-02-11T10:22:22;102144.04;;;6.26;45.59
36964;BME280;22878;48.616;35.326;2023-02-11T10:24:54;102140.69;;;6.16;46.44
36964;BME280;22878;48.616;35.326;2023-02-11T10:27:30;102139.02;;;6.13;46.36
36964;BME280;22878;48.616;35.326;2023-02-11T10:30:18;102133.27;;;6.15;47.64
36964;BME280;22878;48.616;35.326;2023-02-11T10:32:57;102129.98;;;6.19;47.41
36964;BME280;22878;48.616;35.326;2023-02-11T10:35:25;102125.66;;;6.20;47.94
36964;BME280;22878;48.616;35.326;2023-02-11T10:37:52;102123.95;;;6.18;47.69
36964;BME280;22878;48.616;35.326;2023-02-11T10:40:26;102117.95;;;6.25;47.70
36964;BME280;22878;48.616;35.326;2023-02-11T10:42:54;102112.21;;;6.26;46.68
36964;BME280;22878;48.616;35.326;2023-02-11T10:45:32;102108.85;;;6.25;47.32
36964;BME280;22878;48.616;35.326;2023-02-11T10:48:00;102109.52;;;6.15;46.90
36964;BME280;22878;48.616;35.326;2023-02-11T10:50:29;102107.54;;;6.06;47.40
36964;BME280;22878;48.616;35.326;2023-02-11T10:55:35;102107.49;;;6.06;48.32
36964;BME280;22878;48.616;35.326;2023-02-11T10:58:02;102103.86;;;5.99;47.65
36964;BME280;22878;48.616;35.326;2023-02-11T11:00:42;102104.00;;;5.86;48.46
36964;BME280;22878;48.616;35.326;2023-02-11T11:03:22;102096.17;;;5.90;48.66
36964;BME280;22878;48.616;35.326;2023-02-11T11:05:50;102091.94;;;5.90;48.44
36964;BME280;22878;48.616;35.326;2023-02-11T11:08:17;102091.27;;;5.85;48.55
36964;BME280;22878;48.616;35.326;2023-02-11T11:11:04;102093.65;;;5.81;48.35
36964;BME280;22878;48.616;35.326;2023-02-11T11:13:39;102089.85;;;5.59;49.39
36964;BME280;22878;48.616;35.326;2023-02-11T11:18:37;102084.45;;;5.28;50.30
36964;BME280;22878;48.616;35.326;2023-02-11T11:21:05;102080.96;;;5.21;50.77
36964;BME280;22878;48.616;35.326;2023-02-11T11:23:36;102078.97;;;5.13;50.24
36964;BME280;22878;48.616;35.326;2023-02-11T11:26:12;102076.02;;;5.08;50.22
36964;BME280;22878;48.616;35.326;2023-02-11T11:28:59;102073.92;;;5.03;50.13
36964;BME280;22878;48.616;35.326;2023-02-11T11:31:32;102075.73;;;4.97;50.30
36964;BME280;22878;48.616;35.326;2023-02-11T11:34:01;102071.66;;;4.88;50.67
36964;BME280;22878;48.616;35.326;2023-02-11T11:36:35;102069.18;;;4.72;50.65
36964;BME280;22878;48.616;35.326;2023-02-11T11:39:14;102065.80;;;4.57;51.26
36964;BME280;22878;48.616;35.326;2023-02-11T11:41:49;102062.36;;;4.48;52.28
36964;BME280;22878;48.616;35.326;2023-02-11T11:44:36;102058.73;;;4.49;51.88
36964;BME280;22878;48.616;35.326;2023-02-11T11:58:36;102057.88;;;4.23;52.61
36964;BME280;22878;48.616;35.326;2023-02-11T12:15:30;102046.50;;;4.07;55.62
36964;BME280;22878;48.616;35.326;2023-02-11T12:20:34;102041.26;;;4.03;54.24
36964;BME280;22878;48.616;35.326;2023-02-11T12:26:48;102035.39;;;3.97;55.43
36964;BME280;22878;48.616;35.326;2023-02-11T12:45:45;102014.66;;;3.40;56.48
36964;BME280;22878;48.616;35.326;2023-02-11T12:55:56;102010.73;;;2.81;59.47
36964;BME280;22878;48.616;35.326;2023-02-11T12:58:27;102011.73;;;2.66;60.11
36964;BME280;22878;48.616;35.326;2023-02-11T13:01:00;102004.53;;;2.52;60.53
36964;BME280;22878;48.616;35.326;2023-02-11T13:06:24;101993.05;;;2.40;64.49
36964;BME280;22878;48.616;35.326;2023-02-11T13:12:15;102000.80;;;2.32;67.89
36964;BME280;22878;48.616;35.326;2023-02-11T13:15:06;101994.48;;;2.35;68.95
36964;BME280;22878;48.616;35.326;2023-02-11T13:17:48;101994.68;;;2.36;67.64
36964;BME280;22878;48.616;35.326;2023-02-11T13:23:02;101989.84;;;2.28;73.48
36964;BME280;22878;48.616;35.326;2023-02-11T13:25:56;101983.30;;;2.25;77.15
36964;BME280;22878;48.616;35.326;2023-02-11T13:31:01;101975.16;;;2.21;72.84
36964;BME280;22878;48.616;35.326;2023-02-11T13:33:35;101973.53;;;2.20;74.93
36964;BME280;22878;48.616;35.326;2023-02-11T13:38:30;101964.95;;;2.13;74.52
36964;BME280;22878;48.616;35.326;2023-02-11T13:41:04;101956.33;;;2.04;75.31
36964;BME280;22878;48.616;35.326;2023-02-11T13:43:34;101954.58;;;2.01;76.57
36964;BME280;22878;48.616;35.326;2023-02-11T13:46:05;101951.33;;;1.98;77.75
36964;BME280;22878;48.616;35.326;2023-02-11T13:48:37;101952.38;;;1.91;81.63
36964;BME280;22878;48.616;35.326;2023-02-11T13:51:08;101950.32;;;1.83;84.38
36964;BME280;22878;48.616;35.326;2023-02-11T13:54:01;101943.55;;;1.77;81.85
36964;BME280;22878;48.616;35.326;2023-02-11T13:56:31;101937.91;;;1.74;82.59
36964;BME280;22878;48.616;35.326;2023-02-11T13:59:03;101937.58;;;1.72;81.60
36964;BME280;22878;48.616;35.326;2023-02-11T14:04:23;101927.33;;;1.62;84.07
36964;BME280;22878;48.616;35.326;2023-02-11T14:07:34;101921.59;;;1.53;84.89
36964;BME280;22878;48.616;35.326;2023-02-11T14:13:31;101915.33;;;1.34;85.23
36964;BME280;22878;48.616;35.326;2023-02-11T14:39:22;101878.47;;;0.65;96.45
36964;BME280;22878;48.616;35.326;2023-02-11T14:41:49;101876.95;;;0.54;98.83
36964;BME280;22878;48.616;35.326;2023-02-11T14:44:22;101872.63;;;0.48;98.47
36964;BME280;22878;48.616;35.326;2023-02-11T14:46:50;101873.85;;;0.40;99.72
36964;BME280;22878;48.616;35.326;2023-02-11T14:51:53;101871.91;;;0.25;99.78
36964;BME280;22878;48.616;35.326;2023-02-11T14:57:43;101868.07;;;0.08;100.00
36964;BME280;22878;48.616;35.326;2023-02-11T15:00:19;101866.73;;;0.02;100.00
36964;BME280;22878;48.616;35.326;2023-02-11T15:02:46;101868.68;;;-0.04;100.00
36964;BME280;22878;48.616;35.326;2023-02-11T15:05:21;101873.03;;;-0.08;100.00
36964;BME280;22878;48.616;35.326;2023-02-11T15:07:53;101872.02;;;-0.12;100.00
36964;BME280;22878;48.616;35.326;2023-02-11T15:10:36;101874.88;;;-0.16;100.00
36964;BME280;22878;48.616;35.326;2023-02-11T15:13:03;101876.94;;;-0.20;100.00
36964;BME280;22878;48.616;35.326;2023-02-11T15:15:30;101878.46;;;-0.25;100.00
36964;BME280;22878;48.616;35.326;2023-02-11T15:17:59;101877.89;;;-0.28;100.00
36964;BME280;22878;48.616;35.326;2023-02-11T15:20:28;101875.14;;;-0.32;100.00
36964;BME280;22878;48.616;35.326;2023-02-11T15:23:06;101871.23;;;-0.36;100.00
36964;BME280;22878;48.616;35.326;2023-02-11T15:28:55;101880.45;;;-0.46;100.00
36964;BME280;22878;48.616;35.326;2023-02-11T15:31:23;101883.30;;;-0.52;100.00
36964;BME280;22878;48.616;35.326;2023-02-11T15:33:50;101882.66;;;-0.58;100.00
36964;BME280;22878;48.616;35.326;2023-02-11T15:36:18;101877.34;;;-0.61;100.00
36964;BME280;22878;48.616;35.326;2023-02-11T15:38:45;101872.77;;;-0.64;100.00
36964;BME280;22878;48.616;35.326;2023-02-11T15:41:34;101872.80;;;-0.66;100.00
36964;BME280;22878;48.616;35.326;2023-02-11T15:44:00;101870.58;;;-0.69;100.00
36964;BME280;22878;48.616;35.326;2023-02-11T15:46:31;101872.05;;;-0.71;100.00
36964;BME280;22878;48.616;35.326;2023-02-11T15:49:01;101870.53;;;-0.74;100.00
36964;BME280;22878;48.616;35.326;2023-02-11T15:51:32;101867.54;;;-0.76;100.00
36964;BME280;22878;48.616;35.326;2023-02-11T15:54:02;101863.48;;;-0.78;100.00
36964;BME280;22878;48.616;35.326;2023-02-11T15:56:35;101863.94;;;-0.80;100.00
36964;BME280;22878;48.616;35.326;2023-02-11T15:59:14;101856.64;;;-0.82;100.00
36964;BME280;22878;48.616;35.326;2023-02-11T16:01:43;101851.95;;;-0.84;100.00
36964;BME280;22878;48.616;35.326;2023-02-11T16:04:46;101848.61;;;-0.86;100.00